Weather observations for the past three days for
Tunica, Tunica Municipal Airport
Metric (Imperial)
Date Time (cdt) Wind (kph) Vis. (km) Weather Sky Cond. Temperature (ºC) Relative Humidity Wind Chill (°C) Heat Index (°C) Pressure Precipitation (cm)
Air Dwpt 6 hour altimeter (cm) sea level (mb) 1 hr 3 hr 6 hr
Max. Min.
04 20:55 S 13 16.09 Fair CLR 20.6 10.4 52% 75.74 0.0
04 20:15 S 11 12.87 Fair CLR 21.9 10.2 48% 75.74 0.0
04 19:55 S 17 12.87 Fair CLR 22.7 10.1 45% 75.74 0.0 0.03
04 19:35 SW 19 12.87 Fair CLR 23.2 10 43% 75.74 0.0 0.03
04 19:15 S 20 12.87 Fair CLR 23.7 10.1 42% 75.72 0.0
04 18:55 SW 24 14.48 Fair CLR 24.5 9.9 28 24.5 40% 25 75.72 0.0 0.05
04 18:35 SW 26 16.09 Fair CLR 24.8 10 39% 26 75.74 0.0
04 18:15 SW 28 G 43 14.48 Fair CLR 25.3 9.8 38% 26 75.74 0.0
04 17:55 SW 28 16.09 A Few Clouds FEW070 26.1 10.2 37% 26 75.77 0.0
04 17:35 SW 30 16.09 A Few Clouds FEW070 26 10 37% 26 75.74 0.0
04 17:15 SW 35 G 43 14.48 Fair and Breezy CLR 26.9 9.9 34% 27 75.77 0.0
04 16:55 SW 30 16.09 Fair CLR 27.2 9.8 34% 27 75.77 0.0
04 16:15 SW 35 G 44 16.09 Fair and Breezy CLR 27.6 9.8 33% 27 75.79 0.0
04 15:55 SW 30 16.09 Fair CLR 27.8 10.4 34% 27 75.82 0.0 0.03 0.05
04 15:35 SW 30 G 43 16.09 Fair CLR 27.6 9.9 33% 27 75.82 0.0 0.03
04 15:15 S 33 G 43 16.09 Fair and Breezy CLR 27.7 10.2 33% 27 75.84 0.0
04 14:55 SW 31 G 43 14.48 Fair CLR 27.8 10.4 34% 27 75.87 0.0
04 14:35 SW 28 G 48 16.09 Fair CLR 27.6 10.2 34% 27 75.9 0.0
04 14:15 SW 33 G 44 14.48 Fair and Breezy CLR 27.5 10.5 35% 27 75.92 0.0
04 13:55 SW 39 G 46 16.09 Fair and Breezy CLR 27.5 10.3 34% 27 75.95 0.0 0.03
04 13:35 SW 33 G 48 16.09 Fair and Breezy CLR 27.4 10.4 35% 27 75.97 0.0 0.03
04 13:15 SW 35 16.09 A Few Clouds and Breezy FEW370 27.1 10.2 35% 27 75.97 0.0
04 12:55 SW 26 G 46 16.09 A Few Clouds FEW370 27 10.2 27.1 13.3 35% 27 76 0.0 0.08
04 12:35 SW 33 G 46 16.09 Fair and Breezy CLR 26.5 9.7 35% 26 76 0.0
04 12:15 SW 28 G 43 16.09 Fair CLR 26.7 9.8 35% 26 76.02 0.0
04 11:55 SW 26 G 39 16.09 Fair CLR 26.8 10.2 35% 27 76.02 0.0 0.03
04 11:35 SW 31 G 43 16.09 Fair CLR 26.4 10.4 37% 26 76.05 0.0 0.03
04 11:15 SW 33 G 43 16.09 Fair and Breezy CLR 25.8 10.6 39% 26 76.07 0.0
04 10:55 SW 26 16.09 Fair CLR 25.4 12.7 45% 26 76.07 0.0 0.03
04 10:35 SW 22 16.09 Fair CLR 24.7 12.9 48% 26 76.07 0.0 0.03
04 10:15 SW 20 16.09 Fair CLR 24 14.3 55% 25 76.1 0.0 0.03
04 09:55 SW 15 16.09 Fair CLR 22.2 14 60% 76.12 0.0 0.03
04 09:35 SW 15 16.09 Fair CLR 21.4 14.4 65% 76.15 0.0
04 09:15 SW 17 16.09 Fair CLR 20.3 14 67% 76.15 0.0
04 08:55 SW 17 16.09 Fair CLR 19.4 14 71% 76.15 0.0 0.03
04 08:35 S 20 16.09 Fair CLR 18 13.5 75% 76.12 0.0 0.03
04 08:15 S 13 16.09 Fair CLR 17.9 14 78% 76.12 0.0 0.03
04 07:55 S 13 16.09 Fair CLR 17.1 13.6 80% 76.1 0.0
04 07:35 S 11 16.09 Fair CLR 16.1 13.6 85% 76.1 0.0
04 07:15 S 13 16.09 Fair CLR 14.6 13.3 92% 76.1 0.0
04 06:55 S 11 14.48 Fair CLR 12.5 12.3 16.1 12.1 99% 76.07 0.0
04 06:35 S 9 16.09 Fair CLR 12.5 12.3 99% 76.05 0.0
04 06:15 S 9 16.09 Fair CLR 12.5 12 97% 76.05 0.0
04 05:55 S 9 16.09 Fair CLR 13 12.2 95% 76.05 0.0
04 05:35 S 13 16.09 Fair CLR 13.7 12.1 90% 76.05 0.0
04 05:15 S 11 16.09 Fair CLR 13.8 12.1 90% 76.05 0.0
04 04:55 S 9 16.09 Fair CLR 13.9 12 88% 76.07 0.0
04 04:35 S 9 16.09 Fair CLR 13.9 11.9 88% 76.07 0.0
04 04:15 S 11 16.09 Fair CLR 14.4 11.9 85% 76.07 0.0
04 03:55 S 11 16.09 Fair CLR 14.8 11.9 83% 76.07 0.0
04 03:35 S 13 16.09 Fair CLR 15.3 11.9 80% 76.07 0.0
04 03:15 S 13 16.09 Fair CLR 15.4 11.9 80% 76.07 0.0
04 02:55 S 15 16.09 Fair CLR 16 11.8 76% 76.1 0.0
04 02:35 S 13 16.09 Fair CLR 16.1 11.8 76% 76.1 0.0
04 02:15 S 11 16.09 Fair CLR 15.3 11.7 79% 76.12 0.0
04 01:55 S 13 16.09 Fair CLR 14.6 11.4 81% 76.12 0.0
04 01:35 S 13 16.09 Fair CLR 14.4 11.2 81% 76.15 0.0
04 01:15 S 11 16.09 Fair CLR 15 11 77% 76.15 0.0
04 00:55 S 9 16.09 Fair CLR 15.1 10.9 22.9 14.7 76% 76.17 0.0
04 00:35 S 11 16.09 Fair CLR 15.2 10.8 75% 76.17 0.0
04 00:15 S 11 16.09 Fair CLR 15.4 10.6 73% 76.17 0.0
03 23:55 S 11 16.09 Fair CLR 15.4 10.6 73% 76.17 0.0
03 23:35 S 11 16.09 Fair CLR 15.7 10.5 71% 76.17 0.0
03 23:15 S 11 16.09 Fair CLR 15.6 10.5 72% 76.17 0.0
03 22:55 S 9 16.09 Fair CLR 14.7 11.2 80% 76.17 0.0
03 22:35 S 11 16.09 Fair CLR 15.5 10.6 73% 76.17 0.0
03 22:15 S 7 16.09 Fair CLR 16.3 10.3 68% 76.2 0.0
03 21:55 S 13 16.09 Fair CLR 15.8 10.2 70% 76.2 0.0
03 21:35 S 7 14.48 Fair CLR 16.8 10 64% 76.2 0.0
03 21:15 S 7 16.09 Fair CLR 17 10 64% 76.2 0.0
03 20:55 S 9 14.48 Fair CLR 16.2 10.7 70% 76.17 0.0
03 20:35 S 7 14.48 Fair CLR 17.3 9.8 62% 76.17 0.0
03 20:15 S 6 12.87 Fair CLR 17 10.3 65% 76.17 0.0
03 19:55 S 7 12.87 Fair CLR 21.1 8.4 44% 76.15 0.0
03 19:35 S 9 12.87 Fair CLR 21.8 8.6 43% 76.15 0.0
03 19:15 SW 7 14.48 Fair CLR 22.1 9.1 44% 76.17 0.0
03 18:55 SW 13 14.48 Fair CLR 23.4 7.8 25.4 21.9 37% 76.17 0.0
03 18:35 SW 13 14.48 Fair CLR 23.7 7.8 36% 76.17 0.0
03 18:15 SW 17 14.48 Fair CLR 24.1 7.3 34% 25 76.2 0.0
03 17:55 SW 20 14.48 Fair CLR 24.4 6.7 32% 25 76.23 0.0
03 17:35 SW 13 14.48 Fair CLR 24.8 6.5 31% 25 76.23 0.0
03 17:15 W 15 14.48 Fair CLR 24.9 6.1 30% 25 76.25 0.0
03 16:55 Vrbl 9 14.48 Fair CLR 25.1 6.5 30% 25 76.25 0.0
03 16:35 W 17 14.48 Fair CLR 25.1 5.5 28% 25 76.28 0.0
03 16:15 SW 7 14.48 Fair CLR 24.8 5.6 29% 25 76.3 0.0
03 15:55 S 9 G 35 14.48 Fair CLR 24.8 6 30% 25 76.33 0.0
03 15:35 SW 11 14.48 Fair CLR 24.4 6.3 31% 25 76.35 0.0
03 15:15 Vrbl 6 14.48 Fair CLR 24.4 4.9 28% 25 76.38 0.0
03 14:55 W 19 G 26 14.48 Fair CLR 24.8 5.1 28% 25 76.43 0.0
03 14:35 SW 17 G 31 14.48 Fair CLR 24.3 5.2 29% 25 76.43 0.0
03 13:55 S 7 G 30 14.48 Fair CLR 23.1 4.8 31% 76.48 0.0
03 13:35 SW 17 14.48 A Few Clouds FEW350 23.3 6.1 33% 76.5 0.0
03 13:15 S 13 G 30 14.48 A Few Clouds FEW340 22.2 4.8 32% 76.53 0.0
03 12:55 SW 19 16.09 Fair CLR 22.2 5.9 22.2 9 35% 76.56 0.0
03 12:35 SW 15 16.09 Fair CLR 22 5.8 35% 76.58 0.0
03 12:15 S 19 14.48 A Few Clouds FEW340 21.1 5.7 37% 76.61 0.0
03 11:55 S 11 16.09 Fair CLR 20.5 6.3 40% 76.63 0.0
03 11:35 S 11 16.09 A Few Clouds FEW360 20 6.4 41% 76.66 0.0
03 11:15 S 13 16.09 A Few Clouds FEW370 19.7 8.2 48% 76.66 0.0
03 10:55 S 17 16.09 Fair CLR 19.1 8.2 49% 76.68 0.0
03 10:35 SE 13 16.09 Fair CLR 18.3 7.7 50% 76.68 0.0
03 10:15 SE 19 16.09 Fair CLR 17.5 7.3 51% 76.68 0.0
03 09:55 S 15 16.09 Fair CLR 16.8 7.6 55% 76.68 0.0
03 09:35 S 17 16.09 Fair CLR 16.2 7.4 56% 76.68 0.0
03 09:15 SE 20 16.09 Fair CLR 15.5 7.5 59% 76.68 0.0
03 08:55 S 15 16.09 Fair CLR 14.3 8.1 67% 76.68 0.0
03 08:35 SE 17 16.09 Fair CLR 13.7 8.4 71% 76.68 0.0
03 08:15 SE 13 16.09 Fair CLR 12.8 8.6 76% 76.68 0.0
03 07:55 SE 11 16.09 Fair CLR 11.5 8.7 83% 76.68 0.0
03 07:35 SE 6 16.09 Fair CLR 10.9 9.1 89% 76.68 0.0
03 07:15 Calm 14.48 Fair CLR 9.5 8.7 95% 76.66 0.0
03 06:55 Calm 16.09 Fair CLR 7.8 7.4 11.7 6.6 97% 76.63 0.0
03 06:35 SE 6 14.48 Fair CLR 7.5 6.9 96% 76.63 0.0
03 06:15 Calm 14.48 Fair CLR 7.1 6.8 98% 76.61 0.0
03 05:55 E 6 14.48 Fair CLR 6.9 6.9 100% 76.61 0.0
03 05:35 Calm 16.09 Fair CLR 7.3 6.9 97% 76.58 0.0
03 05:15 Calm 16.09 Fair CLR 7.1 7 99% 76.58 0.0
03 04:55 Calm 16.09 Fair CLR 7.6 7 96% 76.58 0.0
03 04:35 Calm 16.09 Fair CLR 7.8 6.6 92% 76.58 0.0
03 04:15 Calm 16.09 Fair CLR 9.3 6.6 83% 76.58 0.0
03 03:55 Calm 16.09 Fair CLR 8.5 7 90% 76.58 0.0
03 03:35 Calm 16.09 Fair CLR 8.2 6.9 92% 76.58 0.0
03 03:15 Calm 16.09 Fair CLR 8.2 7 92% 76.56 0.0
03 02:55 Calm 16.09 Fair CLR 9.4 6.9 85% 76.56 0.0
03 02:35 E 6 16.09 Fair CLR 10.7 6.6 76% 76.56 0.0
03 02:15 E 7 16.09 Fair CLR 10.8 6.9 77% 76.53 0.0
03 01:55 E 7 16.09 Fair CLR 10.9 7 77% 76.53 0.0
03 01:35 E 9 16.09 Fair CLR 11 7.1 77% 76.56 0.0
03 01:15 NE 7 16.09 Fair CLR 10.2 7.8 85% 76.53 0.0
03 00:55 E 11 16.09 Fair CLR 12 7 19.6 10 72% 76.53 0.0
03 00:35 E 11 16.09 Fair CLR 12.2 7 71% 76.53 0.0
03 00:15 E 9 16.09 Fair CLR 12 7.2 73% 76.5 0.0
02 23:55 NE 13 16.09 Fair CLR 12.3 6.9 70% 76.5 0.0
02 23:35 N 6 16.09 Fair CLR 10.8 8.1 84% 76.48 0.0
02 23:15 Calm 16.09 Fair CLR 11.5 7.6 77% 76.45 0.0
02 22:55 Calm 16.09 Fair CLR 12.1 7.2 72% 76.45 0.0
02 22:35 Calm 16.09 Fair CLR 11.9 7 72% 76.45 0.0
02 22:15 NE 6 16.09 Fair CLR 13.1 6.9 66% 76.45 0.0
02 21:55 N 6 14.48 Fair CLR 13.4 6.7 64% 76.43 0.0
02 21:35 N 6 16.09 Fair CLR 13.9 6.2 60% 76.43 0.0
02 21:15 N 6 14.48 Fair CLR 14.3 6.1 58% 76.4 0.0
02 20:55 N 9 16.09 Fair CLR 14.7 5.4 54% 76.38 0.0
02 20:35 Vrbl 11 14.48 Fair CLR 14.6 5.7 55% 76.38 0.0
02 20:15 N 13 12.87 Fair CLR 15 5.8 54% 76.35 0.0
02 19:55 N 13 12.87 Fair CLR 16.7 5 46% 76.33 0.0
02 19:35 N 15 12.87 Fair CLR 17.6 4.6 42% 76.3 0.0
02 19:15 N 15 14.48 NULL NULL 19.3 3.6 36% 76.3 0.0
02 18:55 Calm 14.48 Partly Cloudy SCT080 SCT095 20.2 3.8 23.1 20.2 34% 76.28 0.0 0.03
02 18:35 N 20 14.48 Partly Cloudy SCT085 20.6 4.4 35% 76.28 0.0
02 18:15 NW 20 14.48 A Few Clouds FEW080 21.4 3.6 31% 76.28 0.0
02 17:55 NW 24 14.48 Partly Cloudy SCT080 21.8 4.3 32% 76.28 0.0
02 17:35 NW 22 G 28 12.87 A Few Clouds FEW100 21.1 3.5 32% 76.3 0.0
02 17:15 NW 20 14.48 A Few Clouds FEW100 22.4 4.6 31% 76.3 0.0
02 16:55 NW 19 14.48 A Few Clouds FEW095 20.4 4 34% 76.3 0.0
02 16:35 W 17 14.48 Mostly Cloudy FEW075 BKN095 20.8 4.4 34% 76.3 0.0
02 16:15 W 24 G 35 14.48 A Few Clouds FEW100 22.8 4.7 31% 76.3 0.0
02 15:55 W 20 G 31 16.09 A Few Clouds FEW085 22.7 5.1 32% 76.33 0.0 0.03
02 15:35 NW 20 14.48 Mostly Cloudy BKN085 22.3 4.8 32% 76.33 0.0
02 15:15 NW 22 14.48 Mostly Cloudy BKN090 BKN100 20.8 4.6 35% 76.35 0.0
02 14:55 NW 24 14.48 Mostly Cloudy SCT080 BKN100 22.8 4.7 31% 76.35 0.0
02 14:35 NW 17 G 30 14.48 A Few Clouds FEW080 21.7 4.1 32% 76.35 0.0
02 14:15 NW 13 G 28 14.48 Partly Cloudy SCT085 20.5 3.9 34% 76.35 0.0
02 13:55 NW 26 G 33 16.09 Partly Cloudy SCT080 22.6 4.2 30% 76.38 0.0 0.03
02 13:35 NW 19 14.48 Partly Cloudy SCT080 21.4 3.7 31% 76.38 0.0 0.03
02 13:15 NW 24 G 31 14.48 Partly Cloudy FEW075 SCT350 20.9 4.3 34% 76.4 0.0 0.03
02 12:55 W 11 16.09 Fair CLR 21.1 3.9 21.8 8.7 32% 76.43 0.0
02 12:35 Vrbl 9 16.09 A Few Clouds FEW310 21.4 4.5 33% 76.43 0.0
02 12:15 W 17 16.09 Fair CLR 20.7 3.7 33% 76.43 0.0
02 11:55 W 15 16.09 Fair CLR 20.8 5.2 36% 76.45 0.0
02 11:35 Vrbl 9 14.48 Fair CLR 20.1 4.4 36% 76.45 0.0
02 11:15 Vrbl 7 16.09 Fair CLR 20.5 4.6 35% 76.48 0.0
02 10:55 W 11 16.09 Fair CLR 19.5 4.7 38% 76.48 0.0
02 10:35 Vrbl 7 16.09 Fair CLR 19.8 5.6 40% 76.48 0.0
02 10:15 Vrbl 7 14.48 Fair CLR 18.7 4.9 40% 76.48 0.0
02 09:55 Calm 16.09 Fair CLR 18.1 5.5 44% 76.48 0.0
02 09:35 Calm 16.09 Fair CLR 17.1 4.4 43% 76.48 0.0
02 09:15 Calm 16.09 Fair CLR 16.9 5 46% 76.45 0.0
02 08:55 Calm 16.09 Fair CLR 16 5.2 49% 76.45 0.0
02 08:35 Calm 16.09 Fair CLR 15.2 5.2 52% 76.43 0.0
02 08:15 Calm 16.09 Fair CLR 14.7 5.8 55% 76.43 0.0
02 07:55 NW 6 16.09 A Few Clouds FEW180 12.9 7.9 72% 76.4 0.0
02 07:35 Calm 16.09 A Few Clouds FEW170 11.7 8.9 83% 76.4 0.0
02 07:15 Calm 16.09 A Few Clouds FEW170 10 8.3 89% 76.38 0.0
02 06:55 Calm 16.09 A Few Clouds FEW200 8 6.7 11.9 7 92% 76.35 0.0
02 06:35 Calm 16.09 A Few Clouds FEW200 7.8 6.6 92% 76.35 0.0
02 06:15 NW 6 16.09 A Few Clouds FEW190 7.2 6.5 95% 76.33 0.0
02 05:55 NW 6 16.09 Fair CLR 7.4 6.8 96% 76.33 0.0
02 05:35 NW 7 16.09 Fair CLR 7.7 6.9 95% 7 76.3 0.0
02 05:15 N 9 16.09 Fair CLR 7.7 6.4 92% 6 76.3 0.0
02 04:55 N 7 16.09 Fair CLR 7.6 6.6 93% 7 76.3 0.0
02 04:35 NW 7 16.09 A Few Clouds FEW230 8.5 6.5 87% 8 76.3 0.0
02 04:15 Calm 16.09 Fair CLR 8.9 6.9 87% 76.28 0.0
02 03:55 Calm 16.09 Fair CLR 9.1 7.5 90% 76.25 0.0
02 03:35 N 6 16.09 Fair CLR 9.6 7.3 86% 76.28 0.0
02 03:15 N 7 16.09 Fair CLR 8.4 7.2 92% 8 76.25 0.0
02 02:55 N 7 16.09 Fair CLR 9.2 6.3 82% 8 76.25 0.0
02 02:35 Vrbl 9 16.09 Fair CLR 9 6.8 86% 8 76.28 0.0
02 02:15 N 9 16.09 Fair CLR 10.1 7.5 84% 76.28 0.0
02 01:55 Vrbl 6 16.09 Mostly Cloudy BKN160 10.9 7.8 81% 76.3 0.0
02 01:35 N 9 16.09 Partly Cloudy SCT160 11 8.4 84% 76.3 0.0
02 01:15 N 7 16.09 Mostly Cloudy BKN150 11.5 8.9 84% 76.3 0.0
02 00:55 Calm 16.09 Overcast OVC150 12.4 8.5 16.2 12 77% 76.3 0.0
02 00:35 Calm 16.09 Overcast OVC160 12.2 8.7 79% 76.3 0.0
02 00:15 N 6 16.09 Overcast OVC160 12 9.2 83% 76.3 0.0
01 23:55 N 7 16.09 Overcast OVC160 12.3 9.2 82% 76.25 0.0
01 23:35 N 7 16.09 Overcast OVC160 12.2 9.3 83% 76.25 0.0
01 23:15 NE 7 16.09 Overcast OVC150 12.8 8.3 74% 76.25 0.0
01 22:55 NE 9 16.09 Overcast OVC150 13.1 7.5 69% 76.25 0.0
01 22:35 NE 11 16.09 Mostly Cloudy BKN150 14 5.5 57% 76.25 0.0
01 22:15 NE 15 16.09 Fair CLR 14.5 4.2 50% 76.23 0.0
01 21:55 N 15 16.09 Fair CLR 14.1 5.9 58% 76.23 0.0
01 21:35 N 15 16.09 Partly Cloudy SCT190 14.1 6.1 59% 76.23 0.0
01 21:15 N 13 16.09 Overcast BKN180 OVC200 14 7.1 63% 76.25 0.0
Date Time (cdt) Wind (kph) Vis. (km) Weather Sky Cond. Air Dwpt Max. Min. Relative Humidity Wind Chill (°C) Heat Index (°C) altimeter (cm) sea level (mb) 1 hr 3 hr 6 hr
6 hour
Temperature (ºC) Pressure Precipitation (cm)